sensor_id;sensor_type;location;lat;lon;timestamp;temperature;humidity
1005;DHT22;491;53.480;10.174;2023-02-15T19:43:54;2.70;99.90
1005;DHT22;491;53.480;10.174;2023-02-15T19:46:22;2.60;99.90
1005;DHT22;491;53.480;10.174;2023-02-15T19:48:51;2.60;99.90
1005;DHT22;491;53.480;10.174;2023-02-15T19:53:45;2.50;99.90
1005;DHT22;491;53.480;10.174;2023-02-15T19:56:19;2.40;99.90
1005;DHT22;491;53.480;10.174;2023-02-15T19:58:45;2.40;99.90
1005;DHT22;491;53.480;10.174;2023-02-15T20:01:11;2.40;99.90
1005;DHT22;491;53.480;10.174;2023-02-15T20:06:05;2.30;99.90
1005;DHT22;491;53.480;10.174;2023-02-15T20:08:31;2.30;99.90
1005;DHT22;491;53.480;10.174;2023-02-15T20:10:57;2.30;99.90
1005;DHT22;491;53.480;10.174;2023-02-15T20:13:23;2.30;99.90
1005;DHT22;491;53.480;10.174;2023-02-15T20:15:49;2.30;99.90
1005;DHT22;491;53.480;10.174;2023-02-15T20:18:15;2.30;99.90
1005;DHT22;491;53.480;10.174;2023-02-15T20:20:46;2.30;99.90
1005;DHT22;491;53.480;10.174;2023-02-15T20:23:33;2.20;99.90
1005;DHT22;491;53.480;10.174;2023-02-15T20:26:01;2.20;99.90
1005;DHT22;491;53.480;10.174;2023-02-15T20:28:31;2.20;99.90
1005;DHT22;491;53.480;10.174;2023-02-15T20:30:56;2.10;99.90
1005;DHT22;491;53.480;10.174;2023-02-15T20:33:22;2.10;99.90
1005;DHT22;491;53.480;10.174;2023-02-15T20:35:48;2.10;99.90
1005;DHT22;491;53.480;10.174;2023-02-15T20:38:19;2.10;99.90
1005;DHT22;491;53.480;10.174;2023-02-15T20:40:46;2.10;99.90
1005;DHT22;491;53.480;10.174;2023-02-15T20:43:31;2.00;99.90
1005;DHT22;491;53.480;10.174;2023-02-15T20:45:56;2.00;99.90
1005;DHT22;491;53.480;10.174;2023-02-15T20:48:22;1.90;99.90
1005;DHT22;491;53.480;10.174;2023-02-15T20:50:47;1.90;99.90
1005;DHT22;491;53.480;10.174;2023-02-15T20:53:13;1.80;99.90
1005;DHT22;491;53.480;10.174;2023-02-15T20:55:38;1.80;99.90
1005;DHT22;491;53.480;10.174;2023-02-15T20:58:22;1.90;99.90
1005;DHT22;491;53.480;10.174;2023-02-15T21:00:48;1.80;99.90
1005;DHT22;491;53.480;10.174;2023-02-15T21:03:22;1.80;99.90
1005;DHT22;491;53.480;10.174;2023-02-15T21:05:49;1.80;99.90
1005;DHT22;491;53.480;10.174;2023-02-15T21:08:19;1.70;99.90
1005;DHT22;491;53.480;10.174;2023-02-15T21:10:47;1.80;99.90
1005;DHT22;491;53.480;10.174;2023-02-15T21:13:33;1.80;99.90
1005;DHT22;491;53.480;10.174;2023-02-15T21:16:00;1.70;99.90
1005;DHT22;491;53.480;10.174;2023-02-15T21:18:32;1.70;99.90
1005;DHT22;491;53.480;10.174;2023-02-15T21:21:00;1.70;99.90
1005;DHT22;491;53.480;10.174;2023-02-15T21:23:30;1.70;99.90
1005;DHT22;491;53.480;10.174;2023-02-15T21:25:57;1.70;99.90
1005;DHT22;491;53.480;10.174;2023-02-15T21:28:25;1.70;99.90
1005;DHT22;491;53.480;10.174;2023-02-15T21:30:51;1.70;99.90
1005;DHT22;491;53.480;10.174;2023-02-15T21:33:17;1.70;99.90
1005;DHT22;491;53.480;10.174;2023-02-15T21:35:46;1.70;99.90
1005;DHT22;491;53.480;10.174;2023-02-15T21:38:18;1.70;99.90
1005;DHT22;491;53.480;10.174;2023-02-15T21:40:45;1.80;99.90
1005;DHT22;491;53.480;10.174;2023-02-15T21:43:22;1.70;99.90
1005;DHT22;491;53.480;10.174;2023-02-15T21:46:16;1.70;99.90
1005;DHT22;491;53.480;10.174;2023-02-15T21:49:01;1.70;99.90
1005;DHT22;491;53.480;10.174;2023-02-15T21:51:30;1.70;99.90
1005;DHT22;491;53.480;10.174;2023-02-15T21:54:16;1.70;99.90
1005;DHT22;491;53.480;10.174;2023-02-15T21:56:43;1.70;99.90
1005;DHT22;491;53.480;10.174;2023-02-15T21:59:15;1.60;99.90
1005;DHT22;491;53.480;10.174;2023-02-15T22:01:46;1.60;99.90
1005;DHT22;491;53.480;10.174;2023-02-15T22:04:22;1.60;99.90
1005;DHT22;491;53.480;10.174;2023-02-15T22:06:48;1.60;99.90
1005;DHT22;491;53.480;10.174;2023-02-15T22:09:16;1.50;99.90
1005;DHT22;491;53.480;10.174;2023-02-15T22:11:42;1.50;99.90
1005;DHT22;491;53.480;10.174;2023-02-15T22:14:35;1.50;99.90
1005;DHT22;491;53.480;10.174;2023-02-15T22:17:03;1.60;99.90
1005;DHT22;491;53.480;10.174;2023-02-15T22:19:28;1.60;99.90
1005;DHT22;491;53.480;10.174;2023-02-15T22:21:55;1.50;99.90
1005;DHT22;491;53.480;10.174;2023-02-15T22:24:20;1.40;99.90
1005;DHT22;491;53.480;10.174;2023-02-15T22:26:49;1.50;99.90
1005;DHT22;491;53.480;10.174;2023-02-15T22:29:15;1.50;99.90
1005;DHT22;491;53.480;10.174;2023-02-15T22:31:41;1.50;99.90
1005;DHT22;491;53.480;10.174;2023-02-15T22:36:47;1.50;99.90
1005;DHT22;491;53.480;10.174;2023-02-15T22:39:12;1.60;99.90
1005;DHT22;491;53.480;10.174;2023-02-15T22:41:38;1.50;99.90
1005;DHT22;491;53.480;10.174;2023-02-15T22:44:03;1.50;99.90
1005;DHT22;491;53.480;10.174;2023-02-15T22:46:29;1.50;99.90
1005;DHT22;491;53.480;10.174;2023-02-15T22:48:54;1.40;99.90
1005;DHT22;491;53.480;10.174;2023-02-15T22:51:23;1.40;99.90
1005;DHT22;491;53.480;10.174;2023-02-15T22:53:49;1.40;99.90
1005;DHT22;491;53.480;10.174;2023-02-15T22:56:26;1.40;99.90
1005;DHT22;491;53.480;10.174;2023-02-15T22:58:59;1.40;99.90
1005;DHT22;491;53.480;10.174;2023-02-15T23:01:30;1.30;99.90
1005;DHT22;491;53.480;10.174;2023-02-15T23:03:56;1.20;99.90
1005;DHT22;491;53.480;10.174;2023-02-15T23:06:21;1.20;99.90
1005;DHT22;491;53.480;10.174;2023-02-15T23:08:53;1.30;99.90
1005;DHT22;491;53.480;10.174;2023-02-15T23:11:19;1.30;99.90
1005;DHT22;491;53.480;10.174;2023-02-15T23:13:47;1.40;99.90
1005;DHT22;491;53.480;10.174;2023-02-15T23:16:15;1.40;99.90
1005;DHT22;491;53.480;10.174;2023-02-15T23:18:43;1.40;99.90
1005;DHT22;491;53.480;10.174;2023-02-15T23:21:24;1.40;99.90
1005;DHT22;491;53.480;10.174;2023-02-15T23:23:53;1.40;99.90
1005;DHT22;491;53.480;10.174;2023-02-15T23:26:29;1.20;99.90
1005;DHT22;491;53.480;10.174;2023-02-15T23:28:59;1.20;99.90
1005;DHT22;491;53.480;10.174;2023-02-15T23:31:28;1.20;99.90
1005;DHT22;491;53.480;10.174;2023-02-15T23:33:55;1.10;99.90
1005;DHT22;491;53.480;10.174;2023-02-15T23:36:34;1.20;99.90
1005;DHT22;491;53.480;10.174;2023-02-15T23:39:11;1.30;99.90
1005;DHT22;491;53.480;10.174;2023-02-15T23:41:57;1.50;99.90
1005;DHT22;491;53.480;10.174;2023-02-15T23:44:23;1.60;99.90
1005;DHT22;491;53.480;10.174;2023-02-15T23:46:49;1.50;99.90
1005;DHT22;491;53.480;10.174;2023-02-15T23:49:17;1.50;99.90
1005;DHT22;491;53.480;10.174;2023-02-15T23:51:48;1.40;99.90
1005;DHT22;491;53.480;10.174;2023-02-15T23:54:16;1.40;99.90
1005;DHT22;491;53.480;10.174;2023-02-15T23:56:44;1.50;99.90
1005;DHT22;491;53.480;10.174;2023-02-15T23:59:15;1.60;99.90
